Time;durP1;ratioP1;P1;durP2;ratioP2;P2;SDS_P1;SDS_P2;PMS_P1;PMS_P2;Temp;Humidity;BMP_temperature;BMP_pressure;BME280_temperature;BME280_humidity;BME280_pressure;Samples;Min_cycle;Max_cycle;Signal;HPM_P1;HPM_P2
2023/04/25 00:02:06;;;;;;;1.50;0.90;;;8.00;99.90;;;;;;5047795;28;20791;-71
2023/04/25 00:04:33;;;;;;;0.90;0.90;;;7.90;99.90;;;;;;5047618;28;20821;-71
2023/04/25 00:07:02;;;;;;;1.00;1.00;;;8.00;99.90;;;;;;5047389;28;20729;-71
2023/04/25 00:09:29;;;;;;;2.30;1.73;;;7.90;99.90;;;;;;5047433;28;20624;-71
2023/04/25 00:11:55;;;;;;;1.83;1.30;;;8.00;99.90;;;;;;5047925;28;20659;-71
2023/04/25 00:14:22;;;;;;;1.13;0.97;;;8.00;99.90;;;;;;5047882;28;20206;-71
2023/04/25 00:16:51;;;;;;;0.95;0.95;;;8.00;99.90;;;;;;5047405;28;21160;-71
2023/04/25 00:19:18;;;;;;;1.03;0.90;;;8.00;99.90;;;;;;5047617;28;20541;-71
2023/04/25 00:21:46;;;;;;;1.13;1.13;;;8.10;99.90;;;;;;5047525;28;20668;-71
2023/04/25 00:24:13;;;;;;;1.50;1.33;;;8.00;99.90;;;;;;5047635;28;20227;-71
2023/04/25 00:26:39;;;;;;;1.50;1.40;;;8.00;99.90;;;;;;5047477;28;20651;-71
2023/04/25 00:29:06;;;;;;;5.60;1.07;;;8.00;99.90;;;;;;5046790;28;20219;-71
2023/04/25 00:31:33;;;;;;;2.22;1.85;;;7.90;99.90;;;;;;5047599;28;20650;-71
2023/04/25 00:34:01;;;;;;;1.77;1.10;;;7.80;99.90;;;;;;5047079;28;20206;-71
2023/04/25 00:36:28;;;;;;;1.20;1.10;;;7.90;99.90;;;;;;5047440;28;20655;-71
2023/04/25 00:38:55;;;;;;;0.93;0.90;;;8.00;99.90;;;;;;5046845;28;20633;-71
2023/04/25 00:41:22;;;;;;;1.37;1.33;;;7.90;99.90;;;;;;5038069;28;21130;-71
2023/04/25 00:43:49;;;;;;;1.90;1.10;;;7.90;99.90;;;;;;5045896;28;20943;-71
2023/04/25 00:46:16;;;;;;;1.17;0.97;;;7.80;99.90;;;;;;5048161;28;20671;-71
2023/04/25 00:48:43;;;;;;;1.50;1.40;;;8.00;99.90;;;;;;5050420;28;20951;-71
2023/04/25 00:51:14;;;;;;;1.83;1.53;;;8.00;99.90;;;;;;5051219;28;20657;-70
2023/04/25 00:53:41;;;;;;;0.83;0.83;;;7.90;99.90;;;;;;5051191;28;20648;-71
2023/04/25 00:56:08;;;;;;;0.80;0.80;;;7.90;99.90;;;;;;5050658;28;20660;-71
2023/04/25 00:58:35;;;;;;;1.33;1.23;;;7.90;99.90;;;;;;5050383;28;20727;-71
2023/04/25 01:01:03;;;;;;;1.00;1.00;;;7.90;99.90;;;;;;5049969;28;20665;-71
2023/04/25 01:03:35;;;;;;;1.53;1.43;;;7.90;99.90;;;;;;5050484;28;20655;-71
2023/04/25 01:06:02;;;;;;;1.53;1.27;;;7.90;99.90;;;;;;5049671;28;20657;-71
2023/04/25 01:08:30;;;;;;;0.80;0.73;;;8.00;99.90;;;;;;5050678;28;20739;-71
2023/04/25 01:10:58;;;;;;;0.90;0.90;;;8.00;99.90;;;;;;5050777;28;21079;-70
2023/04/25 01:13:26;;;;;;;1.60;1.50;;;8.10;99.90;;;;;;5050294;28;21320;-70
2023/04/25 01:15:53;;;;;;;1.37;1.27;;;8.10;99.90;;;;;;5050688;28;21078;-71
2023/04/25 01:18:22;;;;;;;0.70;0.70;;;8.00;99.90;;;;;;5050190;28;21005;-70
2023/04/25 01:20:52;;;;;;;2.20;1.00;;;8.00;99.90;;;;;;5050332;28;21238;-71
2023/04/25 01:23:22;;;;;;;2.73;1.73;;;8.10;99.90;;;;;;5050529;28;20756;-71
2023/04/25 01:25:50;;;;;;;6.03;3.00;;;8.10;99.90;;;;;;5049912;28;21263;-71
2023/04/25 01:28:19;;;;;;;1.93;1.40;;;8.20;99.90;;;;;;5049216;28;20636;-70
2023/04/25 01:30:47;;;;;;;2.30;1.23;;;8.10;99.90;;;;;;5050493;28;20634;-71
2023/04/25 01:33:16;;;;;;;1.93;1.30;;;8.10;99.90;;;;;;5050636;28;20682;-71
2023/04/25 01:35:43;;;;;;;1.60;1.50;;;8.00;99.90;;;;;;5049724;28;21241;-71
2023/04/25 01:38:11;;;;;;;1.10;1.00;;;8.10;99.90;;;;;;5049681;28;20685;-71
2023/04/25 01:40:41;;;;;;;1.20;1.10;;;8.10;99.90;;;;;;5049604;28;21236;-71
2023/04/25 01:43:10;;;;;;;0.90;0.90;;;8.10;99.90;;;;;;5050588;28;21017;-71
2023/04/25 01:45:39;;;;;;;1.50;1.40;;;8.00;99.90;;;;;;5049440;28;20667;-71
2023/04/25 01:48:09;;;;;;;1.80;1.30;;;8.00;99.90;;;;;;5049530;28;20731;-71
2023/04/25 01:50:36;;;;;;;1.63;1.37;;;8.10;99.90;;;;;;5049651;28;21012;-71
2023/04/25 01:53:05;;;;;;;1.63;1.23;;;8.10;99.90;;;;;;5049948;28;20636;-71
2023/04/25 01:55:32;;;;;;;1.10;1.00;;;8.10;99.90;;;;;;5049761;28;20686;-71
2023/04/25 01:58:03;;;;;;;1.65;0.85;;;8.00;99.90;;;;;;5049042;28;21007;-71
2023/04/25 02:00:32;;;;;;;1.30;1.20;;;7.80;99.90;;;;;;5050082;28;20240;-71
2023/04/25 02:03:00;;;;;;;1.30;1.00;;;7.90;99.90;;;;;;5049908;28;21058;-71
2023/04/25 02:05:27;;;;;;;1.33;0.90;;;7.80;99.90;;;;;;5049612;28;20326;-71
2023/04/25 02:07:53;;;;;;;1.10;1.00;;;7.80;99.90;;;;;;5049412;28;20230;-71
2023/04/25 02:10:21;;;;;;;1.40;1.02;;;7.70;99.90;;;;;;5030981;28;20209;-71
2023/04/25 02:12:47;;;;;;;5.63;1.97;;;7.70;99.90;;;;;;5049558;28;20202;-71
2023/04/25 02:15:16;;;;;;;1.48;1.20;;;7.70;99.90;;;;;;5049883;28;20632;-71
2023/04/25 02:17:44;;;;;;;1.17;1.08;;;7.70;99.90;;;;;;5048989;28;20206;-70
2023/04/25 02:20:12;;;;;;;1.17;1.08;;;7.60;99.90;;;;;;5048469;28;20203;-70
2023/04/25 02:22:40;;;;;;;1.38;1.08;;;7.60;99.90;;;;;;5049391;28;20308;-70
2023/04/25 02:25:07;;;;;;;0.60;0.60;;;7.60;99.90;;;;;;5049504;28;20210;-71
2023/04/25 02:27:35;;;;;;;4.47;1.27;;;7.70;99.90;;;;;;5049039;28;21199;-71
2023/04/25 02:30:04;;;;;;;1.15;1.08;;;7.70;99.90;;;;;;5049252;28;20620;-71
2023/04/25 02:32:35;;;;;;;1.00;1.00;;;7.70;99.90;;;;;;5049193;28;20202;-71
2023/04/25 02:35:03;;;;;;;1.33;1.10;;;7.70;99.90;;;;;;5031299;28;20654;-71
2023/04/25 02:37:30;;;;;;;1.45;1.35;;;7.70;99.90;;;;;;5048895;28;20696;-71
2023/04/25 02:39:57;;;;;;;1.50;1.10;;;7.50;99.90;;;;;;5048229;28;20206;-71
2023/04/25 02:42:24;;;;;;;1.73;1.20;;;7.50;99.90;;;;;;5035920;28;20560;-71
2023/04/25 02:44:51;;;;;;;1.30;1.20;;;7.60;99.90;;;;;;5048835;28;20697;-71
2023/04/25 02:47:20;;;;;;;1.10;1.00;;;7.50;99.90;;;;;;5048127;28;20230;-71
2023/04/25 02:49:49;;;;;;;1.20;1.10;;;7.50;99.90;;;;;;5048088;28;20208;-70
2023/04/25 02:52:16;;;;;;;1.67;1.58;;;7.40;99.90;;;;;;5049014;28;20308;-71
2023/04/25 02:54:45;;;;;;;2.58;1.30;;;7.40;99.90;;;;;;5049117;28;20256;-70
2023/04/25 02:57:12;;;;;;;1.02;0.95;;;7.50;99.90;;;;;;5048108;28;20232;-70
2023/04/25 02:59:39;;;;;;;0.75;0.75;;;7.50;99.90;;;;;;5045833;28;20202;-70
2023/04/25 03:02:06;;;;;;;0.43;0.43;;;7.40;99.90;;;;;;5048340;28;20241;-71
2023/04/25 03:04:34;;;;;;;2.67;1.42;;;7.40;99.90;;;;;;5030157;28;20205;-70
2023/04/25 03:07:03;;;;;;;1.17;1.10;;;7.30;99.90;;;;;;5048569;28;20326;-70
2023/04/25 03:09:31;;;;;;;0.95;0.95;;;7.20;99.90;;;;;;5047182;28;20208;-70
2023/04/25 03:11:58;;;;;;;0.90;0.90;;;7.30;99.90;;;;;;5048199;28;20241;-70
2023/04/25 03:14:25;;;;;;;0.98;0.95;;;7.20;99.90;;;;;;5048168;28;20286;-70
2023/04/25 03:16:51;;;;;;;1.10;1.00;;;7.20;99.90;;;;;;5048458;28;20249;-70
2023/04/25 03:19:18;;;;;;;0.68;0.68;;;7.20;99.90;;;;;;5047730;28;20217;-70
2023/04/25 03:21:45;;;;;;;1.30;0.70;;;7.20;99.90;;;;;;5048011;28;20324;-70
2023/04/25 03:24:14;;;;;;;1.10;1.05;;;7.10;99.90;;;;;;5048489;28;20234;-70
2023/04/25 03:26:40;;;;;;;0.80;0.80;;;7.30;99.90;;;;;;5047586;28;20227;-70
2023/04/25 03:29:07;;;;;;;1.17;1.05;;;7.20;99.90;;;;;;5047630;28;20264;-70
2023/04/25 03:31:34;;;;;;;2.05;1.10;;;7.30;99.90;;;;;;5048498;28;20234;-72
2023/04/25 03:34:01;;;;;;;1.10;1.10;;;7.30;99.90;;;;;;5047870;28;20622;-71
2023/04/25 03:36:27;;;;;;;1.30;1.13;;;7.30;99.90;;;;;;5047932;28;20312;-71
2023/04/25 03:38:54;;;;;;;0.68;0.60;;;7.40;99.90;;;;;;5047495;28;20212;-71
2023/04/25 03:41:22;;;;;;;2.90;1.10;;;7.40;99.90;;;;;;5038551;28;20317;-71
2023/04/25 03:43:49;;;;;;;1.25;1.02;;;7.30;99.90;;;;;;5038196;28;20671;-71
2023/04/25 03:46:16;;;;;;;2.17;1.35;;;7.30;99.90;;;;;;5048095;28;20261;-71
2023/04/25 03:48:43;;;;;;;1.17;1.05;;;7.30;99.90;;;;;;5045950;28;20343;-70
2023/04/25 03:51:10;;;;;;;1.33;1.00;;;7.20;99.90;;;;;;5047692;28;20225;-71
2023/04/25 03:53:36;;;;;;;2.33;1.20;;;7.30;99.90;;;;;;5047938;28;20204;-71
2023/04/25 03:56:03;;;;;;;1.02;1.02;;;7.20;99.90;;;;;;5047384;28;20500;-70
2023/04/25 03:58:32;;;;;;;2.13;0.73;;;7.10;99.90;;;;;;5046895;28;20332;-71
2023/04/25 04:00:58;;;;;;;1.83;1.52;;;7.10;99.90;;;;;;5047752;28;20235;-71
2023/04/25 04:03:25;;;;;;;0.90;0.73;;;7.20;99.90;;;;;;5048009;28;20225;-71
2023/04/25 04:05:52;;;;;;;0.68;0.60;;;7.20;99.90;;;;;;5047489;28;20243;-71
2023/04/25 04:08:19;;;;;;;1.85;1.30;;;7.20;99.90;;;;;;5046966;28;20205;-71
2023/04/25 04:10:45;;;;;;;1.80;1.70;;;7.10;99.90;;;;;;5047496;28;20237;-71
2023/04/25 04:13:12;;;;;;;1.08;0.98;;;7.30;99.90;;;;;;5047556;28;20663;-71
2023/04/25 04:15:40;;;;;;;1.02;0.70;;;7.20;99.90;;;;;;5047764;28;20706;-71
2023/04/25 04:18:07;;;;;;;1.63;1.00;;;7.20;99.90;;;;;;5047296;28;20275;-71
2023/04/25 04:20:34;;;;;;;2.45;2.00;;;7.20;99.90;;;;;;5048027;28;20235;-70
2023/04/25 04:23:01;;;;;;;1.63;1.52;;;7.20;99.90;;;;;;5051618;28;20299;-71
2023/04/25 04:25:28;;;;;;;1.48;1.38;;;7.10;99.90;;;;;;5052043;28;20753;-71
2023/04/25 04:27:55;;;;;;;1.15;1.10;;;7.10;99.90;;;;;;5051355;28;20198;-70
2023/04/25 04:30:23;;;;;;;1.67;1.58;;;7.00;99.90;;;;;;5051256;28;20267;-72
2023/04/25 04:32:52;;;;;;;1.50;1.40;;;7.00;99.90;;;;;;5051588;28;20205;-71
2023/04/25 04:35:18;;;;;;;1.70;1.60;;;7.00;99.90;;;;;;5051395;28;20209;-71
2023/04/25 04:37:46;;;;;;;0.93;0.80;;;7.00;99.90;;;;;;5050839;28;20698;-70
2023/04/25 04:40:15;;;;;;;1.20;1.10;;;7.00;99.90;;;;;;5050670;28;20246;-70
2023/04/25 04:42:42;;;;;;;1.73;1.63;;;7.00;99.90;;;;;;5035682;28;20221;-71
2023/04/25 04:45:09;;;;;;;1.83;1.73;;;7.00;99.90;;;;;;5041866;28;20283;-70
2023/04/25 04:47:36;;;;;;;1.75;1.40;;;7.00;99.90;;;;;;5051034;28;20209;-70
2023/04/25 04:50:09;;;;;;;2.85;1.70;;;7.00;99.90;;;;;;5050479;28;20604;-70
2023/04/25 04:52:36;;;;;;;2.05;1.63;;;7.00;99.90;;;;;;5050889;28;20246;-70
2023/04/25 04:55:04;;;;;;;3.17;2.38;;;7.00;99.90;;;;;;5051252;28;20576;-70
2023/04/25 04:57:32;;;;;;;1.90;1.73;;;7.10;99.90;;;;;;5050617;28;20681;-70
2023/04/25 05:00:00;;;;;;;3.15;1.75;;;7.10;99.90;;;;;;5041312;28;20261;-70
2023/04/25 05:02:27;;;;;;;1.63;1.40;;;7.20;99.90;;;;;;5050873;28;20226;-71
2023/04/25 05:04:54;;;;;;;2.45;1.80;;;7.20;99.90;;;;;;5050198;28;20214;-71
2023/04/25 05:07:22;;;;;;;3.92;2.08;;;7.20;99.90;;;;;;5049529;28;20229;-71
2023/04/25 05:09:49;;;;;;;2.75;1.60;;;7.30;99.90;;;;;;5050196;28;20316;-70
2023/04/25 05:12:15;;;;;;;1.30;1.20;;;7.40;99.90;;;;;;5050339;28;20226;-70
2023/04/25 05:14:42;;;;;;;1.83;1.73;;;7.30;99.90;;;;;;5050446;28;20207;-70
2023/04/25 05:17:09;;;;;;;1.52;1.42;;;7.40;99.90;;;;;;5050759;28;20748;-70
2023/04/25 05:19:36;;;;;;;1.88;1.75;;;7.40;99.90;;;;;;5049739;28;20207;-70
2023/04/25 05:22:03;;;;;;;3.60;2.47;;;7.40;99.90;;;;;;5050717;28;20238;-70
2023/04/25 05:24:31;;;;;;;1.25;1.25;;;7.50;99.90;;;;;;5050719;28;20217;-70
2023/04/25 05:26:58;;;;;;;6.85;1.70;;;7.60;99.90;;;;;;5049859;28;20255;-70
2023/04/25 05:29:25;;;;;;;2.40;2.17;;;7.60;99.90;;;;;;5049709;28;20289;-71
2023/04/25 05:32:02;;;;;;;1.45;1.17;;;7.60;99.90;;;;;;5049507;28;20643;-70
2023/04/25 05:34:29;;;;;;;3.90;1.92;;;7.60;99.90;;;;;;5050493;28;20214;-71
2023/04/25 05:36:56;;;;;;;1.08;1.05;;;7.70;99.90;;;;;;5049916;28;20239;-71
2023/04/25 05:39:23;;;;;;;2.00;1.90;;;7.60;99.90;;;;;;5049721;28;20534;-70
2023/04/25 05:41:51;;;;;;;1.17;1.08;;;7.70;99.90;;;;;;5049375;28;20229;-67
2023/04/25 05:44:18;;;;;;;1.77;1.67;;;7.70;99.90;;;;;;5049923;28;20217;-70
2023/04/25 05:46:45;;;;;;;2.08;1.67;;;7.80;99.90;;;;;;5049529;28;20238;-68
2023/04/25 05:49:11;;;;;;;1.42;1.33;;;7.80;99.90;;;;;;5051300;28;20292;-68
2023/04/25 05:51:38;;;;;;;1.83;1.73;;;7.90;99.90;;;;;;5066930;28;20248;-68
2023/04/25 05:54:05;;;;;;;3.08;2.75;;;8.00;99.90;;;;;;5064834;28;20189;-68
2023/04/25 05:56:32;;;;;;;1.90;1.80;;;7.90;99.90;;;;;;5039651;28;20222;-68
2023/04/25 05:59:00;;;;;;;0.97;0.87;;;7.90;99.90;;;;;;5048119;28;20216;-68
2023/04/25 06:01:27;;;;;;;2.30;2.13;;;7.80;99.90;;;;;;5049043;28;21305;-68
2023/04/25 06:03:54;;;;;;;2.10;1.90;;;7.90;99.90;;;;;;5049594;28;21007;-68
2023/04/25 06:06:21;;;;;;;1.90;1.70;;;7.80;99.90;;;;;;5049543;28;20659;-68
2023/04/25 06:08:47;;;;;;;2.10;2.00;;;7.80;99.90;;;;;;5053384;28;20208;-68
2023/04/25 06:11:14;;;;;;;1.50;1.40;;;7.80;99.90;;;;;;5052000;28;20684;-68
2023/04/25 06:13:41;;;;;;;1.85;1.75;;;7.70;99.90;;;;;;5049237;28;20202;-68
2023/04/25 06:16:09;;;;;;;1.50;1.40;;;7.80;99.90;;;;;;5049250;28;20337;-68
2023/04/25 06:18:36;;;;;;;6.63;1.90;;;7.70;99.90;;;;;;5047995;28;20227;-68
2023/04/25 06:21:03;;;;;;;2.60;2.33;;;7.70;99.90;;;;;;5049066;28;20650;-68
2023/04/25 06:23:29;;;;;;;5.45;2.53;;;7.60;99.90;;;;;;5049178;28;20221;-68
2023/04/25 06:25:56;;;;;;;2.13;1.90;;;7.70;99.90;;;;;;5048827;28;20233;-69
2023/04/25 06:28:24;;;;;;;3.58;2.30;;;7.70;99.90;;;;;;5047936;28;20684;-69
2023/04/25 06:30:51;;;;;;;1.80;1.57;;;7.60;99.90;;;;;;5049365;28;20228;-68
2023/04/25 06:33:19;;;;;;;1.67;1.52;;;7.60;99.90;;;;;;5049333;28;20628;-68
2023/04/25 06:35:46;;;;;;;2.45;1.38;;;7.60;99.90;;;;;;5048530;28;20233;-68
2023/04/25 06:38:13;;;;;;;1.42;1.33;;;7.50;99.90;;;;;;5048280;28;20241;-68
2023/04/25 06:40:40;;;;;;;1.83;1.60;;;7.50;99.90;;;;;;5048923;28;20746;-68
2023/04/25 06:43:07;;;;;;;2.10;1.60;;;7.50;99.90;;;;;;5048371;28;20769;-69
2023/04/25 06:45:34;;;;;;;1.45;1.08;;;7.50;99.90;;;;;;5048737;28;21016;-68
2023/04/25 06:48:00;;;;;;;2.40;1.75;;;7.40;99.90;;;;;;5048250;28;20297;-69
2023/04/25 06:50:29;;;;;;;2.45;1.70;;;7.30;99.90;;;;;;5048698;28;20320;-68
2023/04/25 06:52:55;;;;;;;2.10;1.63;;;7.20;99.90;;;;;;5048534;28;20200;-68
2023/04/25 06:55:22;;;;;;;2.80;2.60;;;7.20;99.90;;;;;;5045368;28;20224;-68
2023/04/25 06:57:49;;;;;;;2.78;2.33;;;7.20;99.90;;;;;;5029316;28;20213;-68
2023/04/25 07:00:17;;;;;;;1.75;1.65;;;7.20;99.90;;;;;;5045737;28;20212;-67
2023/04/25 07:02:44;;;;;;;2.20;2.05;;;7.20;99.90;;;;;;5048590;28;20308;-68
2023/04/25 07:05:10;;;;;;;1.80;1.65;;;7.20;99.90;;;;;;5048309;28;20317;-68
2023/04/25 07:07:39;;;;;;;2.13;1.55;;;7.20;99.90;;;;;;5047908;28;20233;-69
2023/04/25 07:10:06;;;;;;;1.55;1.38;;;7.20;99.90;;;;;;5047048;28;20197;-68
2023/04/25 07:12:33;;;;;;;2.17;1.65;;;7.10;99.90;;;;;;5048081;28;20287;-69
2023/04/25 07:15:05;;;;;;;1.40;1.30;;;7.20;99.90;;;;;;5048267;28;20204;-68
2023/04/25 07:17:32;;;;;;;2.80;1.38;;;7.20;99.90;;;;;;5048754;28;20663;-68
2023/04/25 07:19:59;;;;;;;3.90;2.20;;;7.20;99.90;;;;;;5047094;28;20293;-69
2023/04/25 07:22:27;;;;;;;1.60;1.50;;;7.20;99.90;;;;;;5047461;28;20233;-68
2023/04/25 07:24:55;;;;;;;1.17;1.08;;;7.10;99.90;;;;;;5048434;28;20224;-68
2023/04/25 07:27:22;;;;;;;1.60;1.50;;;7.10;99.90;;;;;;5036853;28;20539;-69
2023/04/25 07:29:49;;;;;;;1.65;1.55;;;7.10;99.90;;;;;;5041105;28;20221;-68
2023/04/25 07:32:16;;;;;;;2.08;1.27;;;7.10;99.90;;;;;;5048126;28;20233;-69
2023/04/25 07:34:42;;;;;;;1.88;1.77;;;7.10;99.90;;;;;;5047934;28;20743;-69
2023/04/25 07:37:09;;;;;;;1.60;1.50;;;7.20;99.90;;;;;;5037036;28;20239;-69
2023/04/25 07:39:36;;;;;;;3.85;1.65;;;7.20;99.90;;;;;;5031867;28;20299;-69
2023/04/25 07:42:07;;;;;;;2.85;2.08;;;7.20;99.90;;;;;;5036706;28;20240;-68
2023/04/25 07:44:38;;;;;;;2.13;1.92;;;7.10;99.90;;;;;;5047766;28;20252;-69
2023/04/25 07:47:06;;;;;;;2.05;1.70;;;7.10;99.90;;;;;;5048022;28;20252;-70
2023/04/25 07:49:33;;;;;;;1.33;1.13;;;7.10;99.90;;;;;;5046911;28;20213;-69
2023/04/25 07:52:00;;;;;;;2.65;2.40;;;7.20;99.90;;;;;;5047641;28;20237;-69
2023/04/25 07:54:27;;;;;;;1.10;1.10;;;7.10;99.90;;;;;;5047771;28;20296;-68
2023/04/25 07:56:58;;;;;;;2.50;2.30;;;7.20;99.90;;;;;;5046971;28;20232;-67
2023/04/25 07:59:29;;;;;;;2.40;2.20;;;7.20;99.90;;;;;;5045385;28;20205;-67
2023/04/25 08:01:57;;;;;;;3.22;2.28;;;7.30;99.90;;;;;;5047071;28;20245;-68
2023/04/25 08:04:26;;;;;;;3.20;2.85;;;7.20;99.90;;;;;;5047689;28;20228;-67
2023/04/25 08:06:53;;;;;;;4.88;2.92;;;7.20;99.90;;;;;;5048002;28;20229;-68
2023/04/25 08:09:20;;;;;;;1.90;1.80;;;7.30;99.90;;;;;;5046807;28;20226;-68
2023/04/25 08:11:47;;;;;;;1.88;1.55;;;7.30;99.90;;;;;;5047286;28;20716;-68
2023/04/25 08:14:14;;;;;;;2.42;2.20;;;7.30;99.90;;;;;;5047718;28;20209;-68
2023/04/25 08:16:43;;;;;;;3.78;3.47;;;7.40;99.90;;;;;;5047480;28;20554;-68
2023/04/25 08:19:10;;;;;;;2.92;1.92;;;7.50;99.90;;;;;;5047185;28;20274;-68
2023/04/25 08:21:37;;;;;;;2.42;1.60;;;7.40;99.90;;;;;;5047586;28;20229;-68
2023/04/25 08:24:04;;;;;;;1.98;1.88;;;7.40;99.90;;;;;;5046921;28;20214;-68
2023/04/25 08:26:32;;;;;;;1.20;1.10;;;7.40;99.90;;;;;;5047661;28;20673;-68
2023/04/25 08:28:58;;;;;;;1.50;1.40;;;7.40;99.90;;;;;;5033672;28;20986;-69
2023/04/25 08:31:26;;;;;;;1.63;1.52;;;7.30;99.90;;;;;;5047566;28;20235;-68
2023/04/25 08:33:54;;;;;;;1.80;1.70;;;7.30;99.90;;;;;;5047520;28;20220;-68
2023/04/25 08:36:20;;;;;;;1.75;1.65;;;7.30;99.90;;;;;;5047628;28;20238;-68
2023/04/25 08:38:47;;;;;;;2.67;2.03;;;7.30;99.90;;;;;;5047089;28;20567;-68
2023/04/25 08:41:15;;;;;;;2.13;1.95;;;7.30;99.90;;;;;;5040845;28;20232;-68
2023/04/25 08:43:43;;;;;;;3.13;2.65;;;7.40;99.90;;;;;;5046981;28;20230;-68
2023/04/25 08:46:12;;;;;;;2.17;2.08;;;7.40;99.90;;;;;;5047245;28;20236;-68
2023/04/25 08:48:41;;;;;;;5.07;3.80;;;7.40;99.90;;;;;;5033356;28;20747;-68
2023/04/25 08:51:15;;;;;;;2.95;2.20;;;7.30;99.90;;;;;;5045938;28;20253;-68
2023/04/25 08:53:42;;;;;;;4.82;3.20;;;7.30;99.90;;;;;;5046220;28;20198;-68
2023/04/25 08:56:13;;;;;;;2.42;2.22;;;7.40;99.90;;;;;;5046561;28;20217;-68
2023/04/25 08:58:41;;;;;;;4.63;3.85;;;7.50;99.90;;;;;;5040650;28;20209;-68
2023/04/25 09:01:07;;;;;;;4.72;2.55;;;7.50;99.90;;;;;;5039135;28;20313;-68
2023/04/25 09:03:35;;;;;;;3.90;2.95;;;7.50;99.90;;;;;;5047454;28;20235;-68
2023/04/25 09:06:02;;;;;;;2.72;2.50;;;7.50;99.90;;;;;;5046592;28;20235;-68
2023/04/25 09:08:30;;;;;;;2.15;1.73;;;7.50;99.90;;;;;;5048662;28;20206;-68
2023/04/25 09:10:57;;;;;;;4.50;2.40;;;7.40;99.90;;;;;;5050242;28;20587;-69
2023/04/25 09:13:28;;;;;;;2.22;2.03;;;7.40;99.90;;;;;;5050743;28;20202;-68
2023/04/25 09:15:56;;;;;;;1.77;1.27;;;7.30;99.90;;;;;;5050510;28;20225;-68
2023/04/25 09:18:26;;;;;;;1.95;1.70;;;7.40;99.90;;;;;;5050475;28;20211;-68
2023/04/25 09:20:53;;;;;;;2.70;2.50;;;7.40;99.90;;;;;;5049811;28;20236;-68
2023/04/25 09:23:21;;;;;;;1.60;1.30;;;7.40;99.90;;;;;;5050389;28;20222;-68
2023/04/25 09:25:51;;;;;;;3.67;2.15;;;7.40;99.90;;;;;;5050168;28;20225;-68
2023/04/25 09:28:25;;;;;;;2.13;1.80;;;7.50;99.90;;;;;;5050020;28;20229;-68
2023/04/25 09:30:57;;;;;;;1.95;1.55;;;7.60;99.90;;;;;;5050611;28;20225;-68
2023/04/25 09:33:30;;;;;;;12.93;2.10;;;7.60;99.90;;;;;;5050709;28;20198;-68
2023/04/25 09:36:04;;;;;;;3.00;2.78;;;7.60;99.90;;;;;;5049023;28;20234;-68
2023/04/25 09:38:32;;;;;;;1.98;1.77;;;7.40;99.90;;;;;;5048720;28;20892;-68
2023/04/25 09:41:01;;;;;;;1.67;1.58;;;7.50;99.90;;;;;;5050162;28;20280;-68
2023/04/25 09:43:28;;;;;;;15.63;2.13;;;7.60;99.90;;;;;;5050122;28;20225;-68
2023/04/25 09:46:00;;;;;;;5.43;2.60;;;7.50;99.90;;;;;;5050206;28;20247;-68
2023/04/25 09:48:27;;;;;;;9.02;2.78;;;7.50;99.90;;;;;;5048419;28;20206;-68
2023/04/25 09:51:08;;;;;;;1.40;1.33;;;7.50;99.90;;;;;;5050268;28;20248;-68
2023/04/25 09:53:35;;;;;;;1.88;1.77;;;7.50;99.90;;;;;;5050230;28;20208;-68
2023/04/25 09:56:06;;;;;;;2.15;1.48;;;7.30;99.90;;;;;;5048475;28;20656;-68
2023/04/25 09:58:34;;;;;;;4.07;2.15;;;7.30;99.90;;;;;;5049495;28;20647;-67
2023/04/25 10:01:03;;;;;;;1.95;1.40;;;7.10;99.90;;;;;;5050496;28;20276;-67
2023/04/25 10:03:31;;;;;;;1.52;1.42;;;7.10;99.90;;;;;;5050430;28;20259;-68
2023/04/25 10:06:00;;;;;;;2.03;1.83;;;7.10;99.90;;;;;;5049937;28;20244;-68
2023/04/25 10:08:32;;;;;;;2.10;1.63;;;7.00;99.90;;;;;;5049428;28;20215;-68
2023/04/25 10:11:01;;;;;;;1.20;0.60;;;6.90;99.90;;;;;;5045524;28;20572;-68
2023/04/25 10:13:30;;;;;;;1.30;1.25;;;7.00;99.90;;;;;;5049385;28;20205;-68
2023/04/25 10:15:58;;;;;;;1.02;1.00;;;7.10;99.90;;;;;;5048408;28;20230;-69
2023/04/25 10:18:26;;;;;;;0.77;0.77;;;7.10;99.90;;;;;;5048461;28;20202;-68
2023/04/25 10:20:55;;;;;;;2.17;1.98;;;7.00;99.90;;;;;;5049873;28;20240;-69
2023/04/25 10:23:22;;;;;;;0.60;0.60;;;7.10;99.90;;;;;;5049695;28;20214;-69
2023/04/25 10:25:49;;;;;;;1.83;0.60;;;7.20;99.90;;;;;;5048878;28;20754;-71
2023/04/25 10:28:16;;;;;;;0.60;0.52;;;7.00;99.90;;;;;;5048725;28;20205;-70
2023/04/25 10:33:40;;;;;;;0.80;0.80;;;7.00;99.90;;;;;;5126591;27;20723;-69
2023/04/25 10:36:12;;;;;;;0.75;0.65;;;7.20;99.90;;;;;;5125728;28;20281;-69
2023/04/25 10:38:39;;;;;;;1.33;1.20;;;7.20;99.90;;;;;;5125616;28;20198;-68
2023/04/25 10:41:08;;;;;;;0.60;0.60;;;7.20;99.90;;;;;;5125953;28;20219;-70
2023/04/25 10:43:37;;;;;;;0.80;0.60;;;7.20;99.90;;;;;;5126177;27;20210;-70
2023/04/25 10:46:13;;;;;;;2.20;0.77;;;7.10;99.90;;;;;;5126005;27;20231;-69
2023/04/25 10:48:47;;;;;;;1.00;0.47;;;7.10;99.90;;;;;;5124085;27;20206;-70
2023/04/25 10:51:18;;;;;;;4.50;1.30;;;7.00;99.90;;;;;;5125978;27;20228;-70
2023/04/25 10:53:45;;;;;;;0.90;0.90;;;6.90;99.90;;;;;;5126161;27;20624;-69
2023/04/25 10:56:13;;;;;;;2.60;1.17;;;7.00;99.90;;;;;;5125932;27;20234;-69
2023/04/25 10:58:43;;;;;;;1.23;1.05;;;7.00;99.90;;;;;;5125094;27;20570;-69
2023/04/25 11:01:10;;;;;;;0.50;0.50;;;7.10;99.90;;;;;;5125760;27;20223;-70
2023/04/25 11:03:42;;;;;;;0.85;0.85;;;7.00;99.90;;;;;;5126066;27;20226;-70
2023/04/25 11:06:20;;;;;;;0.60;0.60;;;7.00;99.90;;;;;;5125825;27;20236;-69
2023/04/25 11:08:50;;;;;;;1.13;0.63;;;7.10;99.90;;;;;;5125470;27;20194;-69
2023/04/25 11:11:18;;;;;;;1.08;0.98;;;7.00;99.90;;;;;;5125560;27;20237;-69
2023/04/25 11:13:45;;;;;;;1.05;1.00;;;6.90;99.90;;;;;;5124963;27;20203;-70
2023/04/25 11:16:12;;;;;;;1.17;1.02;;;6.80;99.90;;;;;;5125817;27;20408;-69
2023/04/25 11:18:41;;;;;;;0.82;0.60;;;6.60;99.90;;;;;;5125096;27;20206;-69
2023/04/25 11:21:09;;;;;;;1.10;1.08;;;6.70;99.90;;;;;;5125585;27;20248;-69
2023/04/25 11:23:37;;;;;;;0.77;0.77;;;6.70;99.90;;;;;;5125247;27;20731;-70
2023/04/25 11:26:03;;;;;;;1.42;1.15;;;6.60;99.90;;;;;;5124932;27;20704;-69
2023/04/25 11:28:31;;;;;;;1.10;0.60;;;6.70;99.90;;;;;;5124456;27;20198;-69
2023/04/25 11:30:57;;;;;;;2.08;1.35;;;6.70;99.90;;;;;;5125586;27;20597;-69
2023/04/25 11:33:25;;;;;;;2.10;1.27;;;6.60;99.90;;;;;;5125143;27;20230;-70
2023/04/25 11:35:55;;;;;;;0.90;0.90;;;6.70;99.90;;;;;;5125156;27;20226;-69
2023/04/25 11:38:23;;;;;;;3.10;1.50;;;6.80;99.90;;;;;;5124601;27;20206;-70
2023/04/25 11:40:52;;;;;;;1.48;1.38;;;7.00;99.90;;;;;;5124055;27;20309;-70
2023/04/25 11:43:21;;;;;;;2.35;2.13;;;7.00;99.90;;;;;;5120823;27;20556;-69
2023/04/25 11:45:48;;;;;;;1.30;1.20;;;7.00;99.90;;;;;;5111449;28;20229;-69
2023/04/25 11:48:15;;;;;;;3.70;1.38;;;7.20;99.90;;;;;;5111097;28;20204;-69
2023/04/25 11:50:42;;;;;;;1.50;1.40;;;7.30;99.90;;;;;;5111049;28;20232;-69
2023/04/25 11:53:10;;;;;;;1.65;0.80;;;7.40;99.90;;;;;;5111005;28;20231;-69
2023/04/25 11:55:39;;;;;;;2.38;1.20;;;7.40;99.90;;;;;;5111054;28;20228;-69
2023/04/25 11:58:08;;;;;;;3.28;1.55;;;7.60;99.90;;;;;;5110645;27;20207;-69
2023/04/25 12:00:35;;;;;;;0.93;0.93;;;7.50;99.90;;;;;;5110811;28;20234;-70
2023/04/25 12:03:02;;;;;;;0.93;0.90;;;7.50;99.90;;;;;;5111632;28;20199;-69
2023/04/25 12:05:32;;;;;;;2.10;1.10;;;7.40;99.90;;;;;;5110720;28;20697;-69
2023/04/25 12:08:10;;;;;;;1.80;1.40;;;7.30;99.90;;;;;;5110168;28;20637;-70
2023/04/25 12:10:40;;;;;;;1.38;1.27;;;7.20;99.90;;;;;;5110976;27;20238;-70
2023/04/25 12:13:21;;;;;;;1.88;1.73;;;7.10;99.90;;;;;;5110687;28;20726;-70
2023/04/25 12:15:48;;;;;;;2.95;1.13;;;7.10;99.90;;;;;;5110530;28;20227;-70
2023/04/25 12:18:15;;;;;;;1.30;1.20;;;7.10;99.90;;;;;;5109920;28;20228;-70
2023/04/25 12:20:43;;;;;;;3.22;1.55;;;7.10;99.90;;;;;;5110767;28;20255;-70
2023/04/25 12:23:10;;;;;;;2.03;1.92;;;7.20;99.90;;;;;;5111167;28;20598;-70
2023/04/25 12:25:40;;;;;;;3.05;1.80;;;7.30;99.90;;;;;;5110575;28;20320;-69
2023/04/25 12:28:12;;;;;;;2.33;2.20;;;7.30;99.90;;;;;;5110062;28;20284;-69
2023/04/25 12:30:57;;;;;;;2.42;1.80;;;7.20;99.90;;;;;;5107421;28;20384;-70
2023/04/25 12:33:24;;;;;;;2.35;2.22;;;7.30;99.90;;;;;;5109951;28;20228;-69
2023/04/25 12:35:53;;;;;;;3.03;2.72;;;7.20;99.90;;;;;;5109889;28;20219;-69
2023/04/25 12:38:25;;;;;;;4.00;1.85;;;7.40;99.90;;;;;;5109223;28;20207;-70
2023/04/25 12:40:53;;;;;;;2.80;2.60;;;7.50;99.90;;;;;;5109538;28;20224;-69
2023/04/25 12:43:21;;;;;;;2.78;1.95;;;7.50;99.90;;;;;;5109783;28;20669;-70
2023/04/25 12:45:49;;;;;;;2.45;2.25;;;7.60;99.90;;;;;;5110237;28;20277;-70
2023/04/25 12:48:16;;;;;;;3.22;2.30;;;7.40;99.90;;;;;;5108836;28;20205;-69
2023/04/25 12:50:43;;;;;;;2.40;1.60;;;7.60;99.90;;;;;;5110117;27;20317;-70
2023/04/25 12:53:11;;;;;;;2.33;2.23;;;7.90;99.90;;;;;;5108291;28;20684;-70
2023/04/25 12:55:38;;;;;;;1.80;1.63;;;7.70;99.90;;;;;;5089464;28;20742;-69
2023/04/25 12:58:06;;;;;;;2.97;2.77;;;7.90;99.90;;;;;;5090899;28;20623;-69
2023/04/25 13:00:33;;;;;;;3.70;2.37;;;8.10;99.90;;;;;;5109667;28;20756;-70
2023/04/25 13:02:59;;;;;;;2.00;1.80;;;8.20;99.90;;;;;;5110289;28;20615;-70
2023/04/25 13:05:26;;;;;;;3.30;2.60;;;8.40;99.90;;;;;;5109616;28;20988;-70